createdAt,value
2023-03-28T00:00:26.259Z,1.00
2023-03-28T00:26:04.924Z,1.00
2023-03-28T00:28:38.411Z,1.00
2023-03-28T00:31:19.433Z,1.00
2023-03-28T00:33:50.264Z,1.00
2023-03-28T00:36:33.415Z,1.00
2023-03-28T00:39:07.010Z,1.00
2023-03-28T00:41:49.420Z,1.00
2023-03-28T00:44:59.367Z,1.00
2023-03-28T00:47:42.014Z,1.00
2023-03-28T00:50:34.360Z,1.00
2023-03-28T00:53:20.519Z,1.00
2023-03-28T00:55:57.806Z,1.00
2023-03-28T00:58:38.488Z,1.00
2023-03-28T01:01:06.271Z,1.00
2023-03-28T01:03:42.458Z,1.00
2023-03-28T01:06:28.420Z,36.50
2023-03-28T01:09:03.375Z,99.90
2023-03-28T01:11:39.427Z,99.90
2023-03-28T01:14:09.520Z,99.90
2023-03-28T01:16:48.418Z,99.90
2023-03-28T01:19:26.968Z,99.90
2023-03-28T01:22:56.544Z,99.90
2023-03-28T01:25:51.442Z,1.00
2023-03-28T01:29:06.365Z,1.00
2023-03-28T01:32:11.925Z,1.00
2023-03-28T01:35:22.475Z,99.90
2023-03-28T01:38:21.497Z,99.90
2023-03-28T01:41:12.447Z,99.90
2023-03-28T01:43:58.431Z,1.00
2023-03-28T01:46:46.458Z,1.00
2023-03-28T01:49:44.417Z,1.00
2023-03-28T01:52:27.438Z,1.00
2023-03-28T01:55:16.395Z,1.00
2023-03-28T01:58:35.429Z,1.00
2023-03-28T02:01:29.455Z,1.00
2023-03-28T02:04:05.426Z,1.00
2023-03-28T02:07:03.416Z,1.00
2023-03-28T02:09:33.154Z,1.00
2023-03-28T02:12:16.430Z,1.00
2023-03-28T02:14:53.427Z,1.00
2023-03-28T02:17:24.094Z,1.00
2023-03-28T02:20:07.451Z,3.20
2023-03-28T02:23:01.023Z,1.00
2023-03-28T02:25:34.502Z,1.00
2023-03-28T02:28:06.658Z,25.90
2023-03-28T02:30:42.409Z,39.20
2023-03-28T02:33:39.092Z,49.80
2023-03-28T02:36:24.403Z,65.20
2023-03-28T02:39:35.002Z,98.50
2023-03-28T02:42:14.469Z,99.90
2023-03-28T02:45:07.183Z,99.90
2023-03-28T02:48:21.420Z,99.90
2023-03-28T02:51:41.437Z,99.90
2023-03-28T02:54:31.379Z,99.90
2023-03-28T02:57:45.484Z,99.90
2023-03-28T03:00:25.464Z,99.90
2023-03-28T03:02:59.494Z,99.90
2023-03-28T03:05:33.390Z,99.90
2023-03-28T03:08:14.420Z,99.90
2023-03-28T03:10:41.647Z,99.90
2023-03-28T03:13:15.409Z,99.90
2023-03-28T03:15:42.731Z,99.90
2023-03-28T03:18:16.435Z,99.90
2023-03-28T03:20:52.433Z,99.90
2023-03-28T03:23:26.422Z,99.90
2023-03-28T03:26:00.807Z,99.90
2023-03-28T03:28:34.476Z,99.90
2023-03-28T03:31:02.333Z,99.90
2023-03-28T03:41:05.969Z,99.90
2023-03-28T03:43:41.435Z,1.00
2023-03-28T03:46:15.476Z,1.00
2023-03-28T03:48:50.458Z,99.90
2023-03-28T03:51:25.622Z,99.90
2023-03-28T03:53:59.445Z,99.90
2023-03-28T03:56:33.472Z,99.90
2023-03-28T03:59:00.660Z,99.90
2023-03-28T04:01:30.273Z,99.90
2023-03-28T04:04:04.465Z,99.90
2023-03-28T04:06:41.282Z,99.90
2023-03-28T04:09:15.446Z,99.90
2023-03-28T04:11:42.545Z,99.90
2023-03-28T04:14:16.399Z,99.90
2023-03-28T04:16:45.111Z,99.90
2023-03-28T04:19:20.466Z,99.90
2023-03-28T04:21:49.118Z,99.90
2023-03-28T04:24:24.448Z,99.90
2023-03-28T04:26:56.162Z,99.90
2023-03-28T04:29:37.427Z,99.90
2023-03-28T04:32:06.694Z,99.90
2023-03-28T04:34:40.444Z,99.90
2023-03-28T04:37:09.280Z,99.90
2023-03-28T04:39:42.506Z,99.90
2023-03-28T04:42:16.441Z,99.90
2023-03-28T04:44:50.406Z,99.90
2023-03-28T04:47:18.720Z,99.90
2023-03-28T04:49:52.425Z,99.90
2023-03-28T04:52:26.448Z,99.90
2023-03-28T04:55:00.446Z,99.90
2023-03-28T04:57:34.453Z,99.90
2023-03-28T05:00:08.428Z,99.90
2023-03-28T05:02:42.501Z,99.90
2023-03-28T05:05:29.453Z,99.90
2023-03-28T05:07:57.408Z,99.90
2023-03-28T05:10:31.398Z,99.90
2023-03-28T05:13:05.433Z,99.90
2023-03-28T05:15:39.392Z,99.90
2023-03-28T05:18:13.420Z,99.90
2023-03-28T05:20:47.455Z,99.90
2023-03-28T05:23:21.444Z,99.90
2023-03-28T05:25:53.672Z,99.90
2023-03-28T05:28:28.443Z,99.90
2023-03-28T05:30:55.658Z,99.90
2023-03-28T05:33:29.462Z,99.90
2023-03-28T05:36:03.408Z,99.90
2023-03-28T05:38:38.464Z,99.90
2023-03-28T05:41:12.468Z,1.00
2023-03-28T05:43:39.714Z,1.00
2023-03-28T05:46:14.504Z,1.00
2023-03-28T05:48:41.674Z,1.00
2023-03-28T05:51:15.453Z,1.00
2023-03-28T05:53:42.592Z,1.00
2023-03-28T05:56:17.424Z,1.00
2023-03-28T05:58:51.512Z,1.00
2023-03-28T06:01:18.684Z,99.90
2023-03-28T06:03:52.549Z,99.90
2023-03-28T06:06:26.268Z,99.90
2023-03-28T06:08:59.422Z,99.90
2023-03-28T06:11:27.330Z,99.90
2023-03-28T06:14:01.439Z,99.90
2023-03-28T06:16:35.519Z,99.90
2023-03-28T06:19:16.684Z,99.90
2023-03-28T06:21:51.425Z,1.00
2023-03-28T06:24:18.666Z,1.00
2023-03-28T06:26:52.442Z,99.90
2023-03-28T06:29:19.842Z,99.90
2023-03-28T06:31:53.548Z,99.90
2023-03-28T06:34:27.430Z,1.00
2023-03-28T06:36:54.528Z,1.00
2023-03-28T06:39:28.437Z,99.90
2023-03-28T06:42:02.413Z,2.30
2023-03-28T06:44:37.450Z,32.80
2023-03-28T06:47:04.545Z,99.90
2023-03-28T06:49:38.449Z,99.90
2023-03-28T06:52:06.313Z,99.90
2023-03-28T06:54:40.520Z,99.90
2023-03-28T06:57:14.624Z,99.90
2023-03-28T06:59:42.303Z,1.00
2023-03-28T07:02:20.530Z,99.90
2023-03-28T07:04:47.817Z,99.90
2023-03-28T07:07:28.461Z,55.50
2023-03-28T07:10:02.455Z,1.00
2023-03-28T07:12:36.485Z,1.00
2023-03-28T07:15:03.996Z,56.30
2023-03-28T07:17:37.559Z,1.00
2023-03-28T07:20:06.098Z,99.90
2023-03-28T07:22:39.504Z,1.00
2023-03-28T07:25:08.331Z,99.90
2023-03-28T07:27:42.496Z,99.90
2023-03-28T07:30:17.447Z,1.00
2023-03-28T07:32:57.416Z,1.00
2023-03-28T07:35:30.576Z,9.30
2023-03-28T07:38:05.485Z,1.00
2023-03-28T07:40:32.667Z,99.90
2023-03-28T07:43:21.463Z,17.60
2023-03-28T07:46:02.562Z,99.90
2023-03-28T07:48:30.875Z,55.00
2023-03-28T07:51:06.618Z,1.00
2023-03-28T07:53:35.839Z,1.00
2023-03-28T07:56:10.611Z,1.00
2023-03-28T07:58:39.850Z,99.90
2023-03-28T08:01:19.489Z,1.00
2023-03-28T08:03:46.643Z,1.00
2023-03-28T08:09:14.458Z,99.90
2023-03-28T08:11:50.761Z,99.90
2023-03-28T08:14:25.429Z,99.90
2023-03-28T08:16:58.463Z,99.90
2023-03-28T08:19:32.422Z,99.90
2023-03-28T08:22:09.459Z,99.90
2023-03-28T08:24:36.719Z,99.90
2023-03-28T08:27:11.496Z,99.90
2023-03-28T08:29:45.482Z,99.90
2023-03-28T08:32:19.546Z,1.00
2023-03-28T08:34:46.616Z,1.00
2023-03-28T08:37:20.441Z,1.00
2023-03-28T08:39:54.524Z,1.00
2023-03-28T08:42:37.510Z,1.00
2023-03-28T08:45:26.459Z,1.00
2023-03-28T08:48:11.630Z,1.00
2023-03-28T08:51:20.449Z,1.00
2023-03-28T08:54:13.484Z,1.00
2023-03-28T08:56:53.479Z,1.00
2023-03-28T08:59:56.478Z,1.00
2023-03-28T09:02:28.167Z,1.00
2023-03-28T09:05:22.013Z,1.00
2023-03-28T09:08:25.620Z,1.00
2023-03-28T09:11:31.523Z,1.00
2023-03-28T09:14:19.080Z,1.00
2023-03-28T09:17:16.791Z,1.00
2023-03-28T09:20:11.445Z,99.90
2023-03-28T09:23:22.499Z,1.00
2023-03-28T09:26:14.931Z,1.00
2023-03-28T09:29:11.457Z,1.00
2023-03-28T09:31:45.976Z,1.00
2023-03-28T09:34:37.494Z,1.00
2023-03-28T09:37:39.147Z,1.00
2023-03-28T09:40:41.464Z,1.00
2023-03-28T09:43:29.674Z,1.00
2023-03-28T09:46:33.546Z,1.00
